| time (UTC) | temp F | wind direction | speed knots | gust knots | rain 1hr in | rain 24hr in | rain mn in | humidity % | barometer mb |
| 20260502193055 | 63 | 272 | 8.7 | 13.9 | 0.00 | 0.00 | 0.00 | 41 | 1011.6 |
| 20260502191559 | 62 | 260 | 5.2 | 11.3 | 0.00 | 0.00 | 0.00 | 43 | 1011.7 |
| 20260502190106 | 61 | 269 | 8.7 | 16.5 | 0.00 | 0.00 | 0.00 | 42 | 1012.2 |
| 20260502184559 | 61 | 252 | 10.4 | 15.6 | 0.00 | 0.00 | 0.00 | 42 | 1012.5 |
| 20260502183109 | 61 | 265 | 8.7 | 14.8 | 0.00 | 0.00 | 0.00 | 41 | 1012.8 |
| 20260502181609 | 61 | 274 | 5.2 | 13.9 | 0.00 | 0.00 | 0.00 | 41 | 1013.1 |
| 20260502163105 | 55 | 271 | 5.2 | 13.9 | 0.00 | 0.00 | 0.00 | 47 | 1014.8 |
| 20260502161611 | 54 | 276 | 7.0 | 13.9 | 0.00 | 0.00 | 0.00 | 47 | 1015.0 |
| 20260502151605 | 51 | 229 | 3.5 | 12.2 | 0.00 | 0.00 | 0.00 | 52 | 1016.1 |
| 20260502123053 | 35 | 0 | 0.0 | 0.0 | 0.00 | 0.00 | 0.00 | 81 | 1017.5 |
| 20260502121557 | 34 | 0 | 0.0 | 0.0 | 0.00 | 0.00 | 0.00 | 79 | 1017.5 |
| 20260502114554 | 32 | 0 | 0.0 | 0.0 | 0.00 | 0.00 | 0.00 | 83 | 1017.5 |
| 20260502113058 | 32 | 0 | 0.0 | 0.0 | 0.00 | 0.00 | 0.00 | 85 | 1017.6 |
| 20260502111605 | 32 | 0 | 0.0 | 0.0 | 0.00 | 0.00 | 0.00 | 83 | 1017.7 |
| 20260502110059 | 32 | 0 | 0.0 | 0.0 | 0.00 | 0.00 | 0.00 | 80 | 1017.6 |
| 20260502104558 | 31 | 0 | 0.0 | 0.0 | 0.00 | 0.00 | 0.00 | 78 | 1017.5 |
| 20260502103106 | 32 | 0 | 0.0 | 0.0 | 0.00 | 0.00 | 0.00 | 78 | 1017.7 |
| 20260502101557 | 33 | 0 | 0.0 | 0.0 | 0.00 | 0.00 | 0.00 | 77 | 1017.6 |
| 20260502100103 | 33 | 0 | 0.0 | 0.0 | 0.00 | 0.00 | 0.00 | 81 | 1017.8 |
| 20260502090111 | 33 | 0 | 0.0 | 0.0 | 0.00 | 0.00 | 0.00 | 87 | 1017.8 |
| 20260502070104 | 37 | 0 | 0.0 | 0.0 | 0.00 | 0.00 | 0.00 | 78 | 1018.2 |
| 20260502064601 | 38 | 0 | 0.0 | 0.0 | 0.00 | 0.00 | 0.00 | 74 | 1018.3 |
| 20260502063058 | 38 | 0 | 0.0 | 0.0 | 0.00 | 0.00 | 0.00 | 69 | 1018.3 |
| 20260502061558 | 38 | 0 | 0.0 | 0.0 | 0.00 | 0.00 | 0.00 | 70 | 1018.2 |
| 20260502060056 | 39 | 0 | 0.0 | 0.0 | 0.00 | 0.00 | 0.00 | 80 | 1018.2 |
| 20260502054553 | 39 | 0 | 0.0 | 0.0 | 0.00 | 0.00 | 0.00 | 78 | 1018.1 |
| 20260502053129 | 40 | 0 | 0.0 | 0.0 | 0.00 | 0.00 | 0.00 | 70 | 1018.2 |
| 20260502051606 | 39 | 0 | 0.0 | 0.0 | 0.00 | 0.00 | 0.00 | 63 | 1018.2 |
| 20260502050056 | 40 | 0 | 0.0 | 0.0 | 0.00 | 0.00 | 0.00 | 66 | 1018.2 |
| 20260502044556 | 41 | 0 | 0.0 | 0.0 | 0.00 | 0.00 | 0.00 | 70 | 1018.3 |
| 20260502043109 | 41 | 0 | 0.0 | 0.0 | 0.00 | 0.00 | 0.00 | 58 | 1018.3 |
| 20260502041621 | 40 | 0 | 0.0 | 0.0 | 0.00 | 0.00 | 0.00 | 61 | 1018.4 |
| 20260502040053 | 41 | 0 | 0.0 | 0.0 | 0.00 | 0.00 | 0.00 | 65 | 1018.4 |
| 20260502034553 | 42 | 0 | 0.0 | 0.9 | 0.00 | 0.00 | 0.00 | 64 | 1018.5 |
| 20260502033105 | 42 | 0 | 0.0 | 0.0 | 0.00 | 0.00 | 0.00 | 67 | 1018.5 |
| 20260502031552 | 42 | 0 | 0.0 | 0.9 | 0.00 | 0.00 | 0.00 | 54 | 1018.4 |
| 20260502030059 | 43 | 78 | 0.9 | 0.9 | 0.00 | 0.00 | 0.00 | 54 | 1018.3 |
| 20260502024556 | 44 | 0 | 0.0 | 0.0 | 0.00 | 0.00 | 0.00 | 52 | 1018.2 |
| 20260502023059 | 45 | 0 | 0.0 | 0.0 | 0.00 | 0.00 | 0.00 | 51 | 1018.0 |
| 20260502021552 | 46 | 0 | 0.0 | 0.9 | 0.00 | 0.00 | 0.00 | 49 | 1018.0 |
| 20260502020059 | 48 | 79 | 0.0 | 1.7 | 0.00 | 0.00 | 0.00 | 50 | 1017.8 |
| 20260502014553 | 48 | 0 | 0.0 | 0.0 | 0.00 | 0.00 | 0.00 | 39 | 1017.7 |
| 20260502013052 | 50 | 0 | 0.0 | 0.0 | 0.00 | 0.00 | 0.00 | 39 | 1017.7 |
| 20260502011553 | 51 | 0 | 0.0 | 0.0 | 0.00 | 0.00 | 0.00 | 40 | 1017.6 |
| 20260502010058 | 52 | 81 | 0.0 | 2.6 | 0.00 | 0.00 | 0.00 | 35 | 1017.6 |
| 20260502004552 | 53 | 63 | 0.9 | 4.3 | 0.00 | 0.00 | 0.00 | 34 | 1017.4 |
| 20260502003053 | 54 | 316 | 0.9 | 2.6 | 0.00 | 0.00 | 0.00 | 35 | 1017.3 |
| 20260502001601 | 53 | 0 | 0.9 | 2.6 | 0.00 | 0.00 | 0.00 | 36 | 1017.2 |
| 20260502000054 | 53 | 297 | 0.9 | 1.7 | 0.00 | 0.00 | 0.00 | 36 | 1017.3 |
| 20260501234551 | 53 | 309 | 0.0 | 0.9 | 0.00 | 0.00 | 0.00 | 35 | 1017.4 |
| 20260501233105 | 53 | 0 | 0.0 | 4.3 | 0.00 | 0.00 | 0.00 | 34 | 1017.4 |
| 20260501231602 | 54 | 284 | 0.0 | 3.5 | 0.00 | 0.00 | 0.00 | 34 | 1017.3 |
| 20260501230053 | 54 | 88 | 0.0 | 2.6 | 0.00 | 0.00 | 0.00 | 33 | 1017.5 |
| 20260501224552 | 54 | 349 | 0.9 | 5.2 | 0.00 | 0.00 | 0.00 | 33 | 1017.6 |
| 20260501223112 | 54 | 64 | 0.0 | 2.6 | 0.00 | 0.00 | 0.00 | 34 | 1017.5 |
| 20260501221552 | 53 | 0 | 0.9 | 4.3 | 0.00 | 0.00 | 0.00 | 34 | 1017.7 |
| 20260501220054 | 53 | 305 | 0.9 | 4.3 | 0.00 | 0.00 | 0.00 | 34 | 1017.6 |
| 20260501214556 | 53 | 97 | 0.0 | 3.5 | 0.00 | 0.00 | 0.00 | 34 | 1017.7 |
| 20260501213055 | 53 | 75 | 0.9 | 3.5 | 0.00 | 0.00 | 0.00 | 33 | 1017.8 |
| 20260501211554 | 53 | 0 | 0.9 | 3.5 | 0.00 | 0.00 | 0.00 | 34 | 1017.9 |
| 20260501210051 | 54 | 0 | 0.9 | 5.2 | 0.00 | 0.00 | 0.00 | 34 | 1018.0 |
| 20260501204631 | 52 | 302 | 1.7 | 12.2 | 0.00 | 0.00 | 0.00 | 39 | 1018.1 |
| 20260501203058 | 52 | 307 | 1.7 | 2.6 | 0.00 | 0.00 | 0.00 | 36 | 1018.3 |
| 20260501201608 | 51 | 276 | 1.7 | 5.2 | 0.00 | 0.00 | 0.00 | 36 | 1018.3 |
| 20260501200059 | 53 | 304 | 1.7 | 5.2 | 0.00 | 0.00 | 0.00 | 35 | 1018.5 |
| 20260501194556 | 53 | 33 | 1.7 | 4.3 | 0.00 | 0.00 | 0.00 | 35 | 1018.4 |